Hovedside
METAR-TAF:

METAR-TAF

Lufthavner :

Vadsø lufthavn

Vadsø, Norge

breddegrad: 70-04N, lengdegrad: 029-51E, høyde over havet: 3 m

Gjeldene værobservasjon

Denne rapporten ble laget for 21 minutter siden, klokken 14:20 UTC
Vind 11 kt fra Øst
Temperatur 24°C
Luftfuktighet 57%
Trykk 1019 hPa
Sikt 10 km eller mer
ingen skyer under 1500 m og ingen bygeskyer

METAR: ENVD 181420Z 09011KT CAVOK 24/15 Q1019

Tid: 16:41 (14:41 UTC)

Varsel

Denne rapporten ble laget for 3 timer og 41 minutter siden, klokken 11:00 UTC
Varsel gyldig fra 18. klokken 12 UTC til 18. klokken 21 UTC
Vind 10 kt fra Øst
Sikt 10 km eller mer
Få skyer i en høyde av 5000 ft

TAF: ENVD 181100Z 1812/1821 10010KT 9999 FEW050

Værobservasjoner og værvarsel for over 4000 flyplasser (METAR- og TAF-rapporter).

Tilgjengelige stasjoner er representert av de røde og gule prikkene på kartet.

Hold musepekeren over prikken for å se navnet på stasjonen.

Klikk så for å se værobservasjoner og -varsler.

For å forandre kartet kan du klikke på den grønne knappen med svart kryss for å zoome inn, på den grønne knappen med strek for å zoome ut, eller på de grønne pilene for å se tilstøtende kart.


METAR-TAF: